Time;durP1;ratioP1;P1;durP2;ratioP2;P2;SDS_P1;SDS_P2;PMS_P1;PMS_P2;Temp;Humidity;BMP_temperature;BMP_pressure;BME280_temperature;BME280_humidity;BME280_pressure;Samples;Min_cycle;Max_cycle;Signal;HPM_P1;HPM_P2
2023/02/03 00:00:03;;;;;;;12.48;2.90;;;8.60;99.90;;;;;;5033775;28;20036;-64
2023/02/03 00:02:28;;;;;;;11.40;2.38;;;8.60;99.90;;;;;;5053331;28;20119;-64
2023/02/03 00:04:54;;;;;;;9.90;2.45;;;8.60;99.90;;;;;;5034896;28;20587;-64
2023/02/03 00:07:19;;;;;;;9.82;2.08;;;8.60;99.90;;;;;;5052878;28;20061;-64
2023/02/03 00:09:45;;;;;;;7.28;2.03;;;8.60;99.90;;;;;;5051336;28;20035;-64
2023/02/03 00:12:11;;;;;;;8.38;2.50;;;8.60;99.90;;;;;;5052622;28;20544;-64
2023/02/03 00:14:36;;;;;;;11.55;2.20;;;8.60;99.90;;;;;;5035160;28;20037;-64
2023/02/03 00:17:02;;;;;;;8.38;2.08;;;8.60;99.90;;;;;;5052134;28;20045;-64
2023/02/03 00:19:28;;;;;;;10.10;2.28;;;8.60;99.90;;;;;;5055359;28;20069;-65
2023/02/03 00:21:55;;;;;;;12.63;2.42;;;8.60;99.90;;;;;;5034732;28;20079;-64
2023/02/03 00:24:22;;;;;;;8.93;2.45;;;8.60;99.90;;;;;;5050581;28;20048;-64
2023/02/03 00:26:48;;;;;;;16.48;3.00;;;8.60;99.90;;;;;;5052658;28;20395;-64
2023/02/03 00:29:14;;;;;;;7.63;2.55;;;8.60;99.90;;;;;;5050860;28;20029;-64
2023/02/03 00:31:40;;;;;;;12.35;3.38;;;8.60;99.90;;;;;;5034762;28;20068;-65
2023/02/03 00:34:05;;;;;;;11.10;2.53;;;8.60;99.90;;;;;;5034089;28;20380;-64
2023/02/03 00:36:31;;;;;;;11.63;2.40;;;8.60;99.90;;;;;;5051762;28;20040;-64
2023/02/03 00:38:57;;;;;;;14.98;2.83;;;8.70;99.90;;;;;;5052476;28;20070;-64
2023/02/03 00:41:27;;;;;;;12.45;2.70;;;8.60;99.90;;;;;;5052906;28;20111;-64
2023/02/03 00:43:53;;;;;;;15.77;2.97;;;8.60;99.90;;;;;;5052909;28;20506;-65
2023/02/03 00:46:19;;;;;;;9.52;3.30;;;8.60;99.90;;;;;;5049921;28;20048;-64
2023/02/03 00:48:44;;;;;;;9.13;3.00;;;8.50;99.90;;;;;;5052927;28;20037;-64
2023/02/03 00:51:10;;;;;;;13.65;3.08;;;8.60;99.90;;;;;;5033996;28;20106;-64
2023/02/03 00:53:35;;;;;;;12.75;3.08;;;8.60;99.90;;;;;;5034632;28;20074;-64
2023/02/03 00:56:01;;;;;;;13.32;3.13;;;8.60;99.90;;;;;;5050213;28;20136;-64
2023/02/03 00:58:27;;;;;;;11.20;3.25;;;8.70;99.90;;;;;;5034783;28;20462;-64
2023/02/03 01:00:56;;;;;;;9.27;3.10;;;8.60;99.90;;;;;;5034554;28;20041;-65
2023/02/03 01:03:22;;;;;;;11.60;3.08;;;8.70;99.90;;;;;;5034234;28;20033;-64
2023/02/03 01:05:48;;;;;;;9.60;3.17;;;8.70;99.90;;;;;;5050474;28;20395;-64
2023/02/03 01:08:13;;;;;;;12.40;3.00;;;8.70;99.90;;;;;;5052107;28;20040;-64
2023/02/03 01:10:39;;;;;;;10.93;3.08;;;8.70;99.90;;;;;;5029942;28;20510;-64
2023/02/03 01:13:05;;;;;;;11.60;3.33;;;8.60;99.90;;;;;;5052113;28;20059;-64
2023/02/03 01:15:30;;;;;;;12.40;3.00;;;8.60;99.90;;;;;;5049291;28;20033;-65
2023/02/03 01:17:56;;;;;;;14.68;3.60;;;8.60;99.90;;;;;;5034344;28;20040;-64
2023/02/03 01:20:23;;;;;;;10.13;3.08;;;8.50;99.90;;;;;;5046854;28;20179;-64
2023/02/03 01:22:48;;;;;;;10.93;3.28;;;8.50;99.90;;;;;;5033028;28;20087;-64
2023/02/03 01:25:14;;;;;;;13.57;3.22;;;8.50;99.90;;;;;;5049288;28;20040;-64
2023/02/03 01:27:40;;;;;;;10.65;3.20;;;8.50;99.90;;;;;;5033272;28;20041;-64
2023/02/03 01:30:05;;;;;;;14.15;3.90;;;8.60;99.90;;;;;;5052198;28;20523;-64
2023/02/03 01:32:31;;;;;;;12.20;3.30;;;8.50;99.90;;;;;;5033762;28;20037;-64
2023/02/03 01:34:57;;;;;;;16.30;3.53;;;8.60;99.90;;;;;;5048879;28;20033;-65
2023/02/03 01:37:22;;;;;;;16.27;3.72;;;8.50;99.90;;;;;;5054699;28;20033;-65
2023/02/03 01:39:48;;;;;;;11.45;3.60;;;8.50;99.90;;;;;;5051268;28;20044;-64
2023/02/03 01:42:14;;;;;;;13.77;3.60;;;8.50;99.90;;;;;;5051855;28;20718;-65
2023/02/03 01:44:40;;;;;;;13.80;3.33;;;8.60;99.90;;;;;;5032264;28;20475;-64
2023/02/03 01:47:20;;;;;;;14.45;3.55;;;8.60;99.90;;;;;;5050597;28;20040;-64
2023/02/03 01:49:53;;;;;;;13.13;3.58;;;8.50;99.90;;;;;;5050976;28;20041;-64
2023/02/03 01:52:19;;;;;;;12.43;3.35;;;8.50;99.90;;;;;;5026613;28;20550;-65
2023/02/03 01:54:48;;;;;;;13.05;3.30;;;8.50;99.90;;;;;;5022594;28;20129;-64
2023/02/03 01:57:43;;;;;;;13.38;3.15;;;8.50;99.90;;;;;;5050434;28;20037;-65
2023/02/03 02:00:09;;;;;;;13.90;3.55;;;8.50;99.90;;;;;;5024616;28;20052;-64
2023/02/03 02:02:35;;;;;;;15.82;4.05;;;8.60;99.90;;;;;;5050129;28;20108;-64
2023/02/03 02:05:13;;;;;;;14.00;3.17;;;8.60;99.90;;;;;;5014664;28;20033;-65
2023/02/03 02:07:40;;;;;;;10.32;3.05;;;8.60;99.90;;;;;;5050735;28;20068;-64
2023/02/03 02:10:06;;;;;;;14.32;3.40;;;8.60;99.90;;;;;;5050052;28;20438;-64
2023/02/03 02:12:32;;;;;;;11.30;3.03;;;8.50;99.90;;;;;;5051045;28;20090;-64
2023/02/03 02:14:58;;;;;;;9.88;2.67;;;8.50;99.90;;;;;;5047208;28;20041;-64
2023/02/03 02:18:00;;;;;;;9.27;2.67;;;8.50;99.90;;;;;;5032654;28;20092;-65
2023/02/03 02:20:47;;;;;;;9.63;2.60;;;8.50;99.90;;;;;;5050038;28;20107;-66
2023/02/03 02:23:28;;;;;;;11.20;3.17;;;8.50;99.90;;;;;;5031202;28;20418;-65
2023/02/03 02:26:21;;;;;;;12.98;2.83;;;8.50;99.90;;;;;;5030637;28;20411;-66
2023/02/03 02:29:10;;;;;;;10.27;2.58;;;8.50;99.90;;;;;;5027175;28;20194;-65
2023/02/03 02:32:17;;;;;;;10.55;2.40;;;8.50;99.90;;;;;;5005736;28;20057;-63
2023/02/03 02:34:57;;;;;;;11.18;2.20;;;8.60;99.90;;;;;;5047756;28;20132;-65
2023/02/03 02:37:57;;;;;;;11.65;2.78;;;8.60;99.90;;;;;;5044571;28;20147;-65
2023/02/03 02:40:28;;;;;;;13.82;2.45;;;8.60;99.90;;;;;;5037616;28;20025;-65
2023/02/03 02:43:03;;;;;;;8.48;2.05;;;8.60;99.90;;;;;;5028825;28;20037;-65
2023/02/03 02:45:48;;;;;;;12.13;2.50;;;8.60;99.90;;;;;;5030469;28;20048;-65
2023/02/03 02:48:32;;;;;;;9.60;3.50;;;8.70;99.90;;;;;;5047507;28;20043;-63
2023/02/03 02:51:02;;;;;;;8.05;2.10;;;8.70;99.90;;;;;;5034342;28;20175;-65
2023/02/03 02:53:32;;;;;;;7.78;1.90;;;8.70;99.90;;;;;;5024800;28;20115;-66
2023/02/03 02:56:02;;;;;;;9.25;2.28;;;8.70;99.90;;;;;;5031597;28;20048;-66
2023/02/03 02:58:29;;;;;;;10.75;2.45;;;8.80;99.90;;;;;;5025761;28;20040;-65
2023/02/03 03:00:55;;;;;;;10.73;2.33;;;8.70;99.90;;;;;;5050304;28;20069;-65
2023/02/03 03:03:23;;;;;;;11.02;2.58;;;8.80;99.90;;;;;;5031203;28;20068;-63
2023/02/03 03:06:21;;;;;;;13.80;2.55;;;8.90;99.90;;;;;;5048758;28;20044;-65
2023/02/03 03:09:08;;;;;;;9.85;2.13;;;8.80;99.90;;;;;;5024002;28;20053;-64
2023/02/03 03:11:43;;;;;;;9.90;2.30;;;8.80;99.90;;;;;;5042928;28;20032;-65
2023/02/03 03:14:11;;;;;;;16.05;3.00;;;8.80;99.90;;;;;;5029890;28;20173;-65
2023/02/03 03:16:42;;;;;;;8.32;2.17;;;8.80;99.90;;;;;;5049250;28;20053;-64
2023/02/03 03:19:11;;;;;;;13.02;2.33;;;8.80;99.90;;;;;;5049915;28;20365;-65
2023/02/03 03:21:48;;;;;;;8.73;1.98;;;8.70;99.90;;;;;;5050628;28;20036;-65
2023/02/03 03:24:20;;;;;;;8.73;1.77;;;8.70;99.90;;;;;;5047904;28;20403;-65
2023/02/03 03:26:56;;;;;;;14.55;2.38;;;8.80;99.90;;;;;;5046559;28;20041;-65
2023/02/03 03:29:35;;;;;;;7.63;2.33;;;8.90;99.90;;;;;;5049424;28;20048;-66
2023/02/03 03:32:01;;;;;;;11.18;2.25;;;8.80;99.90;;;;;;5031859;28;20053;-65
2023/02/03 03:34:29;;;;;;;7.15;2.10;;;8.80;99.90;;;;;;5029236;28;20047;-63
2023/02/03 03:37:04;;;;;;;8.38;2.03;;;8.90;99.90;;;;;;5049475;28;20037;-65
2023/02/03 03:39:44;;;;;;;11.15;1.92;;;8.80;99.90;;;;;;5032029;28;20041;-64
2023/02/03 03:42:25;;;;;;;9.30;2.00;;;8.80;99.90;;;;;;5039358;28;20517;-64
2023/02/03 03:45:14;;;;;;;10.02;2.40;;;8.90;99.90;;;;;;5047745;28;20041;-64
2023/02/03 03:47:45;;;;;;;15.02;3.40;;;8.90;99.90;;;;;;5002959;28;20065;-63
2023/02/03 03:50:25;;;;;;;10.25;2.88;;;8.80;99.90;;;;;;5031813;28;20041;-64
2023/02/03 03:52:54;;;;;;;10.55;2.40;;;8.80;99.90;;;;;;5053565;28;20395;-64
2023/02/03 03:55:20;;;;;;;10.75;2.25;;;8.90;99.90;;;;;;5047477;28;20099;-64
2023/02/03 03:58:06;;;;;;;9.60;2.00;;;8.90;99.90;;;;;;5049774;28;20037;-64
2023/02/03 04:00:35;;;;;;;12.43;3.03;;;8.80;99.90;;;;;;5044057;28;20047;-64
2023/02/03 04:03:14;;;;;;;15.02;2.58;;;8.80;99.90;;;;;;5031420;28;20154;-64
2023/02/03 04:05:40;;;;;;;8.13;2.60;;;8.80;99.90;;;;;;5047655;28;20064;-64
2023/02/03 04:08:06;;;;;;;11.93;2.40;;;8.90;99.90;;;;;;5050506;28;20051;-65
2023/02/03 04:10:34;;;;;;;8.48;2.45;;;8.80;99.90;;;;;;5023599;28;20037;-64
2023/02/03 04:13:04;;;;;;;10.13;2.05;;;8.80;99.90;;;;;;5049618;28;20767;-64
2023/02/03 04:15:30;;;;;;;9.23;2.25;;;8.90;99.90;;;;;;5028773;28;20233;-64
2023/02/03 04:17:56;;;;;;;16.17;2.45;;;8.80;99.90;;;;;;5015120;28;20044;-64
2023/02/03 04:20:22;;;;;;;9.20;1.75;;;8.80;99.90;;;;;;5029637;28;20033;-64
2023/02/03 04:22:48;;;;;;;8.25;1.88;;;8.90;99.90;;;;;;5049921;28;20045;-64
2023/02/03 04:25:14;;;;;;;7.75;2.17;;;9.00;99.90;;;;;;5030354;28;20056;-64
2023/02/03 04:27:40;;;;;;;9.05;2.00;;;8.90;99.90;;;;;;5053368;28;20518;-65
2023/02/03 04:30:06;;;;;;;9.63;2.35;;;8.90;99.90;;;;;;5051043;28;20041;-65
2023/02/03 04:32:34;;;;;;;11.63;2.58;;;8.90;99.90;;;;;;5030608;28;20480;-64
2023/02/03 04:35:00;;;;;;;10.18;2.08;;;8.90;99.90;;;;;;5036611;28;20513;-64
2023/02/03 04:37:26;;;;;;;11.15;2.45;;;8.90;99.90;;;;;;5049580;28;20048;-64
2023/02/03 04:39:54;;;;;;;9.02;2.30;;;8.90;99.90;;;;;;5035083;28;20063;-64
2023/02/03 04:42:20;;;;;;;10.23;2.25;;;8.90;99.90;;;;;;5049826;28;20045;-64
2023/02/03 04:44:45;;;;;;;8.20;2.15;;;8.90;99.90;;;;;;5033493;28;20118;-64
2023/02/03 04:47:11;;;;;;;9.57;2.10;;;8.90;99.90;;;;;;5034471;28;20083;-63
2023/02/03 04:49:37;;;;;;;11.00;2.50;;;8.90;99.90;;;;;;5034254;28;20127;-64
2023/02/03 04:52:03;;;;;;;10.50;2.05;;;8.80;99.90;;;;;;5034718;28;20044;-64
2023/02/03 04:54:28;;;;;;;11.98;2.10;;;8.80;99.90;;;;;;5016366;28;20041;-64
2023/02/03 04:56:54;;;;;;;9.23;2.20;;;8.80;99.90;;;;;;5052052;28;20045;-64
2023/02/03 04:59:19;;;;;;;15.13;2.70;;;8.90;99.90;;;;;;5033515;28;20501;-64
2023/02/03 05:01:45;;;;;;;10.98;2.20;;;8.90;99.90;;;;;;5058967;28;20082;-64
2023/02/03 05:04:11;;;;;;;15.05;3.35;;;8.80;99.90;;;;;;5033660;28;20033;-64
2023/02/03 05:06:36;;;;;;;6.10;2.20;;;8.90;99.90;;;;;;5053040;28;20561;-64
2023/02/03 05:09:02;;;;;;;12.68;2.53;;;8.90;99.90;;;;;;5034079;28;20052;-64
2023/02/03 05:11:28;;;;;;;10.00;2.40;;;8.90;99.90;;;;;;5034100;28;20546;-63
2023/02/03 05:13:54;;;;;;;12.95;2.42;;;8.80;99.90;;;;;;5034201;28;20120;-64
2023/02/03 05:16:20;;;;;;;11.82;2.35;;;8.90;99.90;;;;;;5049893;28;20124;-64
2023/02/03 05:18:45;;;;;;;12.55;2.35;;;8.90;99.90;;;;;;5051876;28;20102;-65
2023/02/03 05:21:11;;;;;;;12.50;2.53;;;8.90;99.90;;;;;;5052386;28;20075;-65
2023/02/03 05:23:37;;;;;;;12.63;2.97;;;8.90;99.90;;;;;;5051892;28;20033;-64
2023/02/03 05:26:03;;;;;;;18.60;2.45;;;8.80;99.90;;;;;;5032451;28;20045;-64
2023/02/03 05:28:29;;;;;;;9.57;2.50;;;8.90;99.90;;;;;;5034035;28;20047;-64
2023/02/03 05:30:57;;;;;;;10.18;2.13;;;8.80;99.90;;;;;;5051084;28;20537;-64
2023/02/03 05:33:23;;;;;;;13.65;3.33;;;8.80;99.90;;;;;;5017536;28;20049;-64
2023/02/03 05:35:49;;;;;;;12.15;2.67;;;8.90;99.90;;;;;;5048604;28;20070;-64
2023/02/03 05:38:14;;;;;;;7.00;2.40;;;8.90;99.90;;;;;;5025907;28;20398;-64
2023/02/03 05:43:24;;;;;;;9.55;2.22;;;8.90;99.90;;;;;;5044629;28;20036;-64
2023/02/03 05:45:49;;;;;;;15.57;2.83;;;8.80;99.90;;;;;;5030764;28;20048;-64
2023/02/03 05:48:15;;;;;;;14.35;2.78;;;8.80;99.90;;;;;;5051427;28;20422;-65
2023/02/03 05:50:41;;;;;;;15.55;3.03;;;8.80;99.90;;;;;;5055644;28;20074;-63
2023/02/03 05:53:07;;;;;;;10.90;2.53;;;8.80;99.90;;;;;;5043682;28;20060;-63
2023/02/03 05:55:33;;;;;;;13.05;2.60;;;8.80;99.90;;;;;;5031486;28;20044;-63
2023/02/03 05:57:59;;;;;;;12.85;3.33;;;8.80;99.90;;;;;;5046625;28;20040;-64
2023/02/03 06:00:26;;;;;;;14.48;2.70;;;8.90;99.90;;;;;;5047825;28;20041;-64
2023/02/03 06:02:53;;;;;;;10.18;2.85;;;8.80;99.90;;;;;;5050459;28;20041;-64
2023/02/03 06:05:20;;;;;;;12.07;2.78;;;8.90;99.90;;;;;;5040768;28;20510;-63
2023/02/03 06:07:46;;;;;;;12.25;2.58;;;8.80;99.90;;;;;;5033293;28;20045;-63
2023/02/03 06:10:12;;;;;;;9.32;1.98;;;8.80;99.90;;;;;;5051158;28;20040;-63
2023/02/03 06:12:38;;;;;;;15.80;2.95;;;8.80;99.90;;;;;;5033372;28;20041;-64
2023/02/03 06:15:04;;;;;;;15.95;3.05;;;8.80;99.90;;;;;;5030551;28;20064;-64
2023/02/03 06:17:30;;;;;;;11.43;2.92;;;8.80;99.90;;;;;;5030060;28;20049;-64
2023/02/03 06:19:56;;;;;;;13.63;2.40;;;8.80;99.90;;;;;;5033059;28;20143;-63
2023/02/03 06:22:22;;;;;;;18.35;3.35;;;8.80;99.90;;;;;;5051093;28;20116;-65
2023/02/03 06:24:47;;;;;;;14.15;2.78;;;8.70;99.90;;;;;;5050593;28;20033;-64
2023/02/03 06:27:14;;;;;;;15.02;2.40;;;8.80;99.90;;;;;;5042309;28;20375;-63
2023/02/03 06:29:40;;;;;;;13.35;2.67;;;8.80;99.90;;;;;;5044352;28;20491;-64
2023/02/03 06:32:06;;;;;;;11.10;2.35;;;8.80;99.90;;;;;;5045027;28;20422;-64
2023/02/03 06:34:32;;;;;;;8.55;2.40;;;8.80;99.90;;;;;;5037181;28;20036;-65
2023/02/03 06:36:58;;;;;;;15.00;3.03;;;8.80;99.90;;;;;;5027303;28;20040;-63
2023/02/03 06:39:24;;;;;;;11.82;2.75;;;8.80;99.90;;;;;;5044719;28;20115;-64
2023/02/03 06:41:50;;;;;;;12.98;2.60;;;8.80;99.90;;;;;;5050408;28;20041;-64
2023/02/03 06:44:16;;;;;;;10.50;2.45;;;8.80;99.90;;;;;;5024703;28;20045;-63
2023/02/03 06:46:42;;;;;;;13.00;2.55;;;8.80;99.90;;;;;;5042287;28;20119;-63
2023/02/03 06:49:08;;;;;;;9.65;2.38;;;8.80;99.90;;;;;;5049566;28;20163;-63
2023/02/03 06:51:34;;;;;;;10.02;2.20;;;8.80;99.90;;;;;;5031908;28;20068;-64
2023/02/03 06:54:00;;;;;;;8.35;2.30;;;8.80;99.90;;;;;;5028021;28;20115;-64
2023/02/03 06:56:25;;;;;;;12.48;2.88;;;8.80;99.90;;;;;;5042870;28;20610;-64
2023/02/03 06:58:51;;;;;;;12.10;2.80;;;8.80;99.90;;;;;;5054672;28;20059;-64
2023/02/03 07:01:17;;;;;;;14.50;3.00;;;8.70;99.90;;;;;;5047836;28;20029;-63
2023/02/03 07:03:43;;;;;;;13.40;2.50;;;8.80;99.90;;;;;;5028857;28;20139;-64
2023/02/03 07:06:08;;;;;;;11.98;2.60;;;8.80;99.90;;;;;;5029170;28;20472;-63
2023/02/03 07:08:34;;;;;;;11.55;2.70;;;8.70;99.90;;;;;;5049698;28;20028;-63
2023/02/03 07:11:00;;;;;;;13.43;2.75;;;8.80;99.90;;;;;;5049911;28;20040;-63
2023/02/03 07:13:25;;;;;;;11.95;2.65;;;8.70;99.90;;;;;;5048704;28;20042;-64
2023/02/03 07:15:51;;;;;;;11.02;2.70;;;8.80;99.90;;;;;;5049171;28;20071;-63
2023/02/03 07:18:18;;;;;;;12.40;3.17;;;8.80;99.90;;;;;;5033777;28;20036;-63
2023/02/03 07:20:43;;;;;;;14.93;2.95;;;8.80;99.90;;;;;;5050152;28;20296;-63
2023/02/03 07:23:09;;;;;;;12.25;2.95;;;8.80;99.90;;;;;;5031814;28;20083;-63
2023/02/03 07:25:34;;;;;;;8.85;2.17;;;8.80;99.90;;;;;;5029351;28;20140;-64
2023/02/03 07:28:00;;;;;;;11.32;3.03;;;8.90;99.90;;;;;;5049756;28;20040;-64
2023/02/03 07:30:26;;;;;;;12.82;2.67;;;8.90;99.90;;;;;;5049751;28;20035;-64
2023/02/03 07:32:52;;;;;;;11.75;2.53;;;8.90;99.90;;;;;;5032182;28;20053;-64
2023/02/03 07:35:18;;;;;;;12.85;2.70;;;8.90;99.90;;;;;;5048653;28;20029;-63
2023/02/03 07:37:44;;;;;;;10.30;2.88;;;9.00;99.90;;;;;;5040526;28;20045;-64
2023/02/03 07:40:11;;;;;;;8.55;2.88;;;8.90;99.90;;;;;;5049449;28;20037;-64
2023/02/03 07:42:45;;;;;;;16.25;3.63;;;8.90;99.90;;;;;;5029666;28;20132;-64
2023/02/03 07:45:13;;;;;;;13.02;3.05;;;9.00;99.90;;;;;;5027288;28;20080;-63
2023/02/03 07:47:39;;;;;;;17.02;3.10;;;9.00;99.90;;;;;;5041496;28;20080;-64
2023/02/03 07:50:05;;;;;;;15.30;3.15;;;9.10;99.90;;;;;;5044004;28;20029;-64
2023/02/03 07:52:31;;;;;;;10.52;2.72;;;9.10;99.90;;;;;;5026801;28;20075;-64
2023/02/03 07:54:56;;;;;;;8.68;2.97;;;9.20;99.90;;;;;;5029243;28;20127;-65
2023/02/03 07:57:22;;;;;;;14.63;3.33;;;9.20;99.90;;;;;;5031004;28;20133;-64
2023/02/03 07:59:47;;;;;;;11.13;2.95;;;9.20;99.90;;;;;;5031524;28;20051;-65
2023/02/03 08:02:13;;;;;;;13.27;2.97;;;9.20;99.90;;;;;;5032605;28;20083;-64
2023/02/03 08:04:39;;;;;;;12.15;2.90;;;9.20;99.90;;;;;;5035730;28;20067;-64
2023/02/03 08:07:04;;;;;;;12.60;3.60;;;9.20;99.90;;;;;;5035163;28;20080;-64
2023/02/03 08:09:30;;;;;;;12.57;3.05;;;9.30;99.90;;;;;;5053362;28;20078;-64
2023/02/03 08:11:55;;;;;;;14.10;3.17;;;9.30;99.90;;;;;;5052664;28;20112;-64
2023/02/03 08:14:21;;;;;;;15.10;3.78;;;9.30;99.90;;;;;;5035208;28;20471;-64
2023/02/03 08:16:47;;;;;;;11.73;2.45;;;9.30;99.90;;;;;;5034157;28;20147;-69
2023/02/03 08:19:13;;;;;;;14.10;3.00;;;9.30;99.90;;;;;;5050582;28;20029;-65
2023/02/03 08:21:38;;;;;;;11.55;3.13;;;9.30;99.90;;;;;;5053183;28;20040;-65
2023/02/03 08:24:04;;;;;;;12.05;2.45;;;9.30;99.90;;;;;;5052897;28;20025;-65
2023/02/03 08:26:30;;;;;;;13.25;2.92;;;9.30;99.90;;;;;;5052683;28;20547;-65
2023/02/03 08:28:55;;;;;;;10.80;2.85;;;9.30;99.90;;;;;;5024760;28;20049;-64
2023/02/03 08:31:21;;;;;;;11.57;3.17;;;9.40;99.90;;;;;;5053021;28;20043;-65
2023/02/03 08:33:47;;;;;;;15.32;2.60;;;9.30;99.90;;;;;;5052742;28;20491;-65
2023/02/03 08:36:12;;;;;;;10.48;3.40;;;9.30;99.90;;;;;;5049134;28;20044;-65
2023/02/03 08:38:39;;;;;;;8.35;2.45;;;9.40;99.90;;;;;;5034747;28;20032;-64
2023/02/03 08:41:14;;;;;;;14.98;3.03;;;9.30;99.90;;;;;;5033210;28;20071;-64
2023/02/03 08:43:40;;;;;;;15.80;3.08;;;9.30;99.90;;;;;;5043436;28;20222;-65
2023/02/03 08:46:07;;;;;;;11.23;3.03;;;9.30;99.90;;;;;;5054814;28;20244;-64
2023/02/03 08:48:33;;;;;;;13.25;3.30;;;9.30;99.90;;;;;;5040748;28;20120;-65
2023/02/03 08:50:59;;;;;;;17.52;3.50;;;9.30;99.90;;;;;;5052570;28;20033;-65
2023/02/03 08:53:25;;;;;;;13.45;3.28;;;9.30;99.90;;;;;;5033068;28;20047;-64
2023/02/03 08:55:51;;;;;;;12.50;2.75;;;9.40;99.90;;;;;;5033719;28;20124;-64
2023/02/03 08:58:17;;;;;;;15.57;3.00;;;9.40;99.90;;;;;;5035127;28;20370;-65
2023/02/03 09:00:43;;;;;;;15.90;4.00;;;9.40;99.90;;;;;;5055118;28;20108;-65
2023/02/03 09:03:08;;;;;;;22.05;4.05;;;9.40;99.90;;;;;;5054908;28;20035;-64
2023/02/03 09:05:35;;;;;;;13.05;3.40;;;9.40;99.90;;;;;;5034291;28;20292;-64
2023/02/03 09:08:01;;;;;;;15.85;3.13;;;9.40;99.90;;;;;;5032578;28;20045;-64
2023/02/03 09:10:27;;;;;;;14.27;3.22;;;9.40;99.90;;;;;;5051624;28;20033;-65
2023/02/03 09:12:52;;;;;;;16.48;4.20;;;9.40;99.90;;;;;;5049791;28;20186;-64
2023/02/03 09:15:18;;;;;;;14.43;3.40;;;9.30;99.90;;;;;;5033480;28;20036;-64
2023/02/03 09:17:44;;;;;;;20.88;3.75;;;9.40;99.90;;;;;;5034322;28;20037;-65
2023/02/03 09:20:12;;;;;;;17.10;3.25;;;9.40;99.90;;;;;;5033823;28;20037;-65
2023/02/03 09:22:38;;;;;;;15.40;3.25;;;9.40;99.90;;;;;;5034077;28;20059;-64
2023/02/03 09:25:05;;;;;;;15.43;3.63;;;9.40;99.90;;;;;;5033303;28;20040;-64
2023/02/03 09:27:30;;;;;;;13.48;3.40;;;9.40;99.90;;;;;;5031936;28;20037;-65
2023/02/03 09:29:57;;;;;;;16.73;2.92;;;9.40;99.90;;;;;;5033643;28;20068;-64
2023/02/03 09:32:23;;;;;;;16.17;3.88;;;9.40;99.90;;;;;;5047958;28;20047;-64
2023/02/03 09:34:48;;;;;;;15.18;2.92;;;9.40;99.90;;;;;;5053647;28;20474;-64
2023/02/03 09:37:14;;;;;;;11.88;2.78;;;9.40;99.90;;;;;;5053267;28;20124;-64
2023/02/03 09:39:40;;;;;;;14.30;3.47;;;9.30;99.90;;;;;;5035064;28;20471;-64
2023/02/03 09:42:15;;;;;;;12.45;3.42;;;9.30;99.90;;;;;;5045438;28;20143;-64
2023/02/03 09:44:50;;;;;;;17.88;3.55;;;9.30;99.90;;;;;;5022810;28;20042;-63
2023/02/03 09:47:19;;;;;;;20.30;3.00;;;9.30;99.90;;;;;;5027803;28;20033;-64
2023/02/03 09:49:54;;;;;;;13.77;3.45;;;9.30;99.90;;;;;;5024384;28;20049;-64
2023/02/03 09:52:23;;;;;;;16.27;3.30;;;9.30;99.90;;;;;;5026136;28;20084;-64
2023/02/03 09:55:23;;;;;;;17.63;3.38;;;9.30;99.90;;;;;;5048706;28;20043;-64
2023/02/03 09:57:58;;;;;;;16.52;3.33;;;9.40;99.90;;;;;;5023444;28;20050;-64
2023/02/03 10:00:29;;;;;;;18.80;3.75;;;9.30;99.90;;;;;;5025066;28;20454;-64
2023/02/03 10:03:15;;;;;;;17.38;3.90;;;9.30;99.90;;;;;;5048640;28;20041;-64
2023/02/03 10:06:04;;;;;;;14.48;3.35;;;9.40;99.90;;;;;;5030270;28;20046;-64
2023/02/03 10:08:51;;;;;;;14.10;3.72;;;9.40;99.90;;;;;;5016811;28;20132;-64
2023/02/03 10:11:44;;;;;;;13.95;3.10;;;9.40;99.90;;;;;;5037096;28;20068;-63
2023/02/03 10:14:33;;;;;;;13.65;3.42;;;9.40;99.90;;;;;;5036620;28;20074;-63
2023/02/03 10:17:31;;;;;;;18.77;4.47;;;9.50;99.90;;;;;;5049285;28;20055;-63
2023/02/03 10:20:34;;;;;;;14.93;3.72;;;9.50;99.90;;;;;;5043501;28;20076;-64
2023/02/03 10:23:06;;;;;;;21.20;4.40;;;9.50;99.90;;;;;;5052297;28;20180;-63
2023/02/03 10:25:43;;;;;;;19.45;3.40;;;9.50;99.90;;;;;;5019237;28;20037;-64
2023/02/03 10:28:16;;;;;;;23.75;4.07;;;9.60;99.90;;;;;;5051613;28;20093;-63
2023/02/03 10:30:46;;;;;;;16.98;3.72;;;9.60;99.90;;;;;;5037155;28;20051;-64
2023/02/03 10:33:15;;;;;;;21.90;3.25;;;9.60;99.90;;;;;;5048235;28;20033;-63
2023/02/03 10:35:53;;;;;;;25.60;4.72;;;9.60;99.90;;;;;;5032207;28;20510;-64
2023/02/03 10:38:34;;;;;;;19.50;4.03;;;9.60;99.90;;;;;;5028720;28;20069;-63
2023/02/03 10:41:00;;;;;;;22.08;4.40;;;9.60;99.90;;;;;;5050406;28;20044;-64
2023/02/03 10:43:46;;;;;;;19.27;3.55;;;9.60;99.90;;;;;;5050378;28;20095;-64
2023/02/03 10:46:16;;;;;;;21.85;4.80;;;9.70;99.90;;;;;;5049781;28;20041;-64
2023/02/03 10:48:42;;;;;;;18.70;4.35;;;9.60;99.90;;;;;;5045601;28;20049;-63
2023/02/03 10:51:21;;;;;;;19.50;4.47;;;9.70;99.90;;;;;;5049569;28;20029;-64
2023/02/03 10:53:51;;;;;;;23.15;3.90;;;9.70;99.90;;;;;;5049241;28;20045;-63
2023/02/03 10:56:37;;;;;;;18.17;3.78;;;9.70;99.90;;;;;;5042870;28;20124;-63
2023/02/03 10:59:05;;;;;;;25.92;5.40;;;9.70;99.90;;;;;;5048701;28;20529;-63
2023/02/03 11:01:45;;;;;;;26.58;4.68;;;9.80;99.90;;;;;;5050558;28;20044;-64
2023/02/03 11:04:27;;;;;;;21.65;4.50;;;9.70;99.90;;;;;;5030587;28;20056;-63
2023/02/03 11:06:56;;;;;;;25.87;4.83;;;9.80;99.90;;;;;;5049506;28;20052;-64
2023/02/03 11:09:47;;;;;;;25.30;4.93;;;9.80;99.90;;;;;;5048905;28;20044;-63
2023/02/03 11:12:18;;;;;;;26.50;4.80;;;9.80;99.90;;;;;;5046686;28;20044;-63
2023/02/03 11:14:49;;;;;;;25.45;4.65;;;9.80;99.90;;;;;;5032030;28;20044;-64
2023/02/03 11:17:18;;;;;;;25.75;4.78;;;9.80;99.90;;;;;;5044015;28;20507;-64
2023/02/03 11:19:46;;;;;;;22.48;4.78;;;9.80;99.90;;;;;;5049699;28;20037;-63
2023/02/03 11:22:25;;;;;;;34.10;5.75;;;9.70;99.90;;;;;;5044863;28;20144;-63
2023/02/03 11:24:51;;;;;;;22.85;4.50;;;9.70;99.90;;;;;;5026664;28;20045;-63
2023/02/03 11:27:18;;;;;;;26.83;4.88;;;9.70;99.90;;;;;;5030303;28;20461;-63
2023/02/03 11:29:48;;;;;;;24.92;5.20;;;9.70;99.90;;;;;;5044247;28;20125;-63
2023/02/03 11:32:24;;;;;;;28.58;5.60;;;9.80;99.90;;;;;;5047854;28;20040;-64
2023/02/03 11:34:59;;;;;;;30.70;5.90;;;9.80;99.90;;;;;;5030728;28;20116;-63
2023/02/03 11:37:36;;;;;;;30.75;4.72;;;9.70;99.90;;;;;;5053726;28;20124;-63
2023/02/03 11:40:11;;;;;;;29.05;5.53;;;9.80;99.90;;;;;;5051956;28;20041;-63
2023/02/03 11:42:41;;;;;;;28.02;5.07;;;9.70;99.90;;;;;;5045470;28;20498;-63
2023/02/03 11:45:16;;;;;;;31.00;5.07;;;9.80;99.90;;;;;;5034974;28;20470;-64
2023/02/03 11:48:05;;;;;;;25.23;5.15;;;9.70;99.90;;;;;;5035783;28;20410;-63
2023/02/03 11:50:43;;;;;;;26.65;4.82;;;9.70;99.90;;;;;;5051684;28;20037;-64
2023/02/03 11:53:13;;;;;;;29.13;5.38;;;9.70;99.90;;;;;;5043650;28;20033;-63
2023/02/03 11:56:18;;;;;;;26.38;4.75;;;9.60;99.90;;;;;;5034842;28;20182;-63
2023/02/03 11:59:02;;;;;;;28.40;5.13;;;9.70;99.90;;;;;;5059138;28;20041;-64
2023/02/03 12:01:55;;;;;;;33.03;5.78;;;9.60;99.90;;;;;;5041024;28;20123;-64
2023/02/03 12:04:31;;;;;;;29.08;5.18;;;9.70;99.90;;;;;;5053481;28;20146;-63
2023/02/03 12:07:03;;;;;;;26.10;5.13;;;9.90;99.90;;;;;;5037055;28;20179;-63
2023/02/03 12:09:51;;;;;;;34.15;5.97;;;9.70;99.90;;;;;;5040566;28;20040;-63
2023/02/03 12:12:32;;;;;;;32.22;6.20;;;9.70;99.90;;;;;;5045694;28;20066;-63
2023/02/03 12:15:22;;;;;;;29.65;5.53;;;9.60;99.90;;;;;;5047111;28;20552;-64
2023/02/03 12:18:01;;;;;;;23.95;5.38;;;9.60;99.90;;;;;;5046162;28;20076;-63
2023/02/03 12:20:42;;;;;;;33.17;5.43;;;9.70;99.90;;;;;;5026887;28;20395;-63
2023/02/03 12:23:33;;;;;;;39.40;5.10;;;9.60;99.90;;;;;;5032245;28;20119;-63
2023/02/03 12:26:13;;;;;;;30.70;5.55;;;9.60;99.90;;;;;;5043957;28;20037;-63
2023/02/03 12:28:48;;;;;;;33.47;5.50;;;9.60;99.90;;;;;;5047226;28;20592;-63
2023/02/03 12:31:28;;;;;;;28.35;4.95;;;9.60;99.90;;;;;;5063651;28;20040;-64
2023/02/03 12:34:11;;;;;;;27.13;4.90;;;9.60;99.90;;;;;;5048798;28;20574;-63
2023/02/03 12:36:46;;;;;;;39.17;6.00;;;9.60;99.90;;;;;;5027004;28;20041;-63
2023/02/03 12:39:30;;;;;;;37.45;6.78;;;9.60;99.90;;;;;;5027343;28;20032;-63
2023/02/03 12:42:06;;;;;;;34.38;5.95;;;9.50;99.90;;;;;;5037902;28;20116;-63
2023/02/03 12:44:43;;;;;;;32.70;5.25;;;9.60;99.90;;;;;;5050337;28;20033;-63
2023/02/03 12:47:34;;;;;;;24.75;5.30;;;9.50;99.90;;;;;;5022062;28;20047;-63
2023/02/03 12:50:20;;;;;;;26.70;5.80;;;9.50;99.90;;;;;;5046166;28;20071;-63
2023/02/03 12:53:04;;;;;;;33.38;5.95;;;9.50;99.90;;;;;;5018217;28;20104;-63
2023/02/03 12:55:46;;;;;;;26.73;5.43;;;9.50;99.90;;;;;;5049810;28;20513;-63
2023/02/03 12:58:20;;;;;;;35.53;5.70;;;9.50;99.90;;;;;;5050635;28;20432;-63
2023/02/03 13:01:22;;;;;;;26.70;5.32;;;9.50;99.90;;;;;;5025764;28;20507;-63
2023/02/03 13:04:10;;;;;;;28.65;5.10;;;9.50;99.90;;;;;;5046638;28;20052;-64
2023/02/03 13:07:05;;;;;;;27.95;5.30;;;9.50;99.90;;;;;;5056985;28;20041;-63
2023/02/03 13:09:58;;;;;;;27.77;5.35;;;9.50;99.90;;;;;;5049213;28;20460;-63